createdAt,value
2023-02-23T00:02:26.800Z,32.33
2023-02-23T00:05:13.160Z,22.03
2023-02-23T00:07:59.717Z,23.33
2023-02-23T00:10:48.308Z,27.63
2023-02-23T00:13:37.517Z,26.33
2023-02-23T00:16:26.573Z,26.67
2023-02-23T00:19:13.989Z,27.40
2023-02-23T00:22:04.276Z,23.57
2023-02-23T00:24:50.869Z,22.93
2023-02-23T00:27:44.312Z,28.27
2023-02-23T00:30:31.526Z,26.10
2023-02-23T00:33:19.651Z,24.60
2023-02-23T00:36:09.356Z,23.93
2023-02-23T00:39:00.215Z,24.57
2023-02-23T00:41:47.855Z,24.10
2023-02-23T00:44:35.019Z,29.63
2023-02-23T00:47:21.633Z,26.30
2023-02-23T00:50:14.758Z,29.27
2023-02-23T00:53:01.717Z,24.53
2023-02-23T00:55:48.070Z,26.23
2023-02-23T00:58:34.255Z,29.30
2023-02-23T01:01:21.162Z,22.07
2023-02-23T01:04:08.428Z,22.47
2023-02-23T01:06:56.402Z,26.23
2023-02-23T01:09:43.590Z,23.83
2023-02-23T01:12:29.990Z,25.07
2023-02-23T01:15:16.935Z,34.43
2023-02-23T01:18:03.418Z,31.17
2023-02-23T01:20:51.571Z,28.20
2023-02-23T01:23:39.664Z,23.27
2023-02-23T01:26:28.370Z,23.60
2023-02-23T01:29:16.689Z,27.77
2023-02-23T01:32:04.797Z,27.23
2023-02-23T01:34:51.949Z,23.23
2023-02-23T01:37:42.502Z,23.80
2023-02-23T01:40:30.495Z,25.63
2023-02-23T01:43:22.780Z,23.67
2023-02-23T01:46:09.609Z,23.03
2023-02-23T01:48:57.435Z,24.73
2023-02-23T01:51:49.855Z,23.17
2023-02-23T01:54:43.962Z,23.27
2023-02-23T01:57:32.015Z,22.43
2023-02-23T02:00:20.233Z,23.33
2023-02-23T02:03:15.943Z,25.07
2023-02-23T02:06:04.725Z,24.73
2023-02-23T02:08:55.024Z,21.70
2023-02-23T02:11:44.543Z,29.80
2023-02-23T02:14:33.322Z,23.60
2023-02-23T02:17:32.897Z,22.23
2023-02-23T02:20:57.054Z,26.50
2023-02-23T02:24:25.142Z,28.90
2023-02-23T02:27:22.498Z,25.00
2023-02-23T02:30:47.387Z,26.20
2023-02-23T02:34:06.745Z,26.30
2023-02-23T02:37:44.484Z,26.57
2023-02-23T02:40:40.186Z,22.17
2023-02-23T02:43:36.516Z,23.77
2023-02-23T02:46:26.120Z,31.10
2023-02-23T02:49:21.276Z,25.17
2023-02-23T02:52:17.691Z,26.97
2023-02-23T02:55:12.142Z,22.80
2023-02-23T02:58:02.241Z,25.30
2023-02-23T03:01:08.918Z,26.30
2023-02-23T03:04:13.335Z,25.67
2023-02-23T03:07:21.610Z,29.63
2023-02-23T03:10:33.267Z,25.90
2023-02-23T03:13:53.025Z,29.97
2023-02-23T03:17:06.610Z,21.60
2023-02-23T03:20:17.192Z,52.90
2023-02-23T03:23:31.192Z,40.20
2023-02-23T03:26:42.076Z,27.47
2023-02-23T03:29:52.388Z,30.93
2023-02-23T03:33:05.993Z,25.77
2023-02-23T03:36:16.163Z,22.77
2023-02-23T03:39:26.092Z,34.50
2023-02-23T03:42:35.430Z,28.40
2023-02-23T03:45:43.773Z,36.37
2023-02-23T03:48:50.294Z,28.17
2023-02-23T03:51:57.460Z,28.00
2023-02-23T03:55:06.605Z,29.10
2023-02-23T03:58:13.896Z,27.37
2023-02-23T04:01:22.538Z,24.60
2023-02-23T04:04:29.523Z,23.07
2023-02-23T04:07:37.848Z,26.60
2023-02-23T04:10:43.372Z,22.47
2023-02-23T04:13:32.984Z,23.70
2023-02-23T04:16:20.208Z,23.80
2023-02-23T04:19:07.541Z,20.20
2023-02-23T04:21:54.040Z,23.47
2023-02-23T04:24:40.478Z,31.40
2023-02-23T04:27:26.874Z,26.30
2023-02-23T04:30:13.977Z,28.27
2023-02-23T04:33:01.854Z,32.77
2023-02-23T04:35:48.822Z,27.30
2023-02-23T04:38:35.523Z,27.23
2023-02-23T04:41:21.932Z,25.83
2023-02-23T04:44:08.206Z,26.50
2023-02-23T04:46:54.521Z,29.47
2023-02-23T04:49:42.410Z,29.03
2023-02-23T04:52:29.073Z,26.67
2023-02-23T04:55:19.555Z,27.07
2023-02-23T04:58:06.199Z,28.97
2023-02-23T05:00:52.644Z,26.83
2023-02-23T05:03:38.974Z,25.50
2023-02-23T05:06:27.059Z,27.87
2023-02-23T05:09:13.531Z,29.90
2023-02-23T05:11:59.923Z,29.23
2023-02-23T05:14:46.474Z,33.43
2023-02-23T05:17:32.986Z,29.77
2023-02-23T05:20:19.394Z,25.27
2023-02-23T05:23:07.039Z,25.97
2023-02-23T05:25:53.444Z,30.80
2023-02-23T05:28:41.809Z,28.30
2023-02-23T05:31:28.403Z,28.03
2023-02-23T05:34:16.762Z,29.93
2023-02-23T05:37:03.412Z,34.27
2023-02-23T05:39:51.160Z,31.50
2023-02-23T05:42:38.430Z,25.53
2023-02-23T05:45:25.119Z,29.43
2023-02-23T05:48:11.644Z,35.03
2023-02-23T05:51:02.920Z,31.03
2023-02-23T05:53:49.329Z,29.30
2023-02-23T05:56:37.090Z,27.27
2023-02-23T05:59:23.464Z,31.27
2023-02-23T06:02:09.717Z,28.33
2023-02-23T06:04:56.598Z,45.97
2023-02-23T06:07:42.946Z,37.10
2023-02-23T06:10:29.360Z,40.33
2023-02-23T06:13:17.946Z,32.97
2023-02-23T06:16:04.967Z,37.43
2023-02-23T06:18:51.231Z,30.48
2023-02-23T06:21:37.593Z,32.97
2023-02-23T06:24:24.534Z,33.03
2023-02-23T06:27:11.064Z,34.50
2023-02-23T06:29:59.035Z,37.97
2023-02-23T06:32:45.624Z,33.13
2023-02-23T06:35:32.083Z,28.23
2023-02-23T06:38:18.744Z,32.83
2023-02-23T06:41:09.195Z,39.00
2023-02-23T06:43:55.977Z,26.80
2023-02-23T06:46:43.558Z,29.90
2023-02-23T06:49:30.194Z,26.47
2023-02-23T06:52:16.975Z,32.20
2023-02-23T06:55:03.399Z,35.73
2023-02-23T06:57:50.244Z,31.83
2023-02-23T07:00:37.432Z,29.00
2023-02-23T07:03:25.412Z,26.93
2023-02-23T07:06:12.181Z,26.97
2023-02-23T07:08:59.163Z,31.80
2023-02-23T07:11:45.585Z,31.90
2023-02-23T07:14:33.079Z,30.27
2023-02-23T07:17:19.757Z,29.93
2023-02-23T07:20:08.350Z,27.43
2023-02-23T07:22:54.852Z,26.73
2023-02-23T07:25:41.190Z,33.03
2023-02-23T07:28:28.836Z,31.77
2023-02-23T07:31:15.345Z,32.00
2023-02-23T07:34:01.825Z,32.73
2023-02-23T07:36:49.672Z,33.73
2023-02-23T07:39:36.277Z,32.03
2023-02-23T07:42:22.703Z,33.33
2023-02-23T07:45:10.303Z,31.10
2023-02-23T07:47:56.866Z,32.03
2023-02-23T07:50:43.747Z,31.30
2023-02-23T07:53:31.814Z,27.67
2023-02-23T07:56:18.237Z,42.10
2023-02-23T07:59:04.762Z,28.23
2023-02-23T08:01:52.370Z,28.67
2023-02-23T08:04:38.939Z,31.03
2023-02-23T08:07:25.809Z,24.67
2023-02-23T08:10:14.504Z,34.83
2023-02-23T08:13:00.967Z,28.93
2023-02-23T08:15:47.477Z,32.77
2023-02-23T08:18:34.343Z,28.23
2023-02-23T08:21:21.116Z,24.07
2023-02-23T08:24:08.123Z,27.07
2023-02-23T08:26:55.889Z,32.33
2023-02-23T08:29:42.315Z,36.67
2023-02-23T08:32:29.780Z,27.37
2023-02-23T08:35:18.618Z,31.07
2023-02-23T08:38:04.985Z,31.37
2023-02-23T08:40:51.353Z,30.57
2023-02-23T08:43:39.696Z,28.30
2023-02-23T08:46:26.246Z,32.10
2023-02-23T08:49:12.675Z,38.23
2023-02-23T08:51:58.951Z,32.17
2023-02-23T08:54:45.612Z,43.07
2023-02-23T08:57:33.984Z,44.50
2023-02-23T09:00:23.096Z,28.50
2023-02-23T09:03:09.665Z,33.37
2023-02-23T09:05:56.728Z,29.13
2023-02-23T09:08:43.474Z,36.40
2023-02-23T09:11:29.773Z,48.17
2023-02-23T09:14:16.064Z,42.93
2023-02-23T09:17:03.877Z,29.83
2023-02-23T09:19:50.170Z,30.33
2023-02-23T09:22:36.985Z,44.20
2023-02-23T09:25:24.465Z,33.10
2023-02-23T09:28:13.113Z,31.30
2023-02-23T09:30:59.879Z,37.30
2023-02-23T09:33:48.129Z,30.77
2023-02-23T09:36:34.468Z,52.40
2023-02-23T09:39:32.383Z,49.47
2023-02-23T09:42:36.914Z,34.00
2023-02-23T09:45:29.756Z,35.47
2023-02-23T09:48:19.645Z,29.35
2023-02-23T09:51:09.926Z,29.30
2023-02-23T09:54:00.971Z,32.92
2023-02-23T09:56:51.048Z,40.75
2023-02-23T09:59:37.652Z,32.85
2023-02-23T10:02:30.501Z,35.35
2023-02-23T10:05:17.472Z,30.05
2023-02-23T10:08:12.426Z,31.13
2023-02-23T10:11:09.689Z,38.63
2023-02-23T10:14:13.766Z,34.67
2023-02-23T10:17:11.921Z,38.13
2023-02-23T10:20:05.548Z,38.72
2023-02-23T10:22:55.175Z,40.13
2023-02-23T10:25:48.098Z,36.53
2023-02-23T10:28:36.971Z,41.55
2023-02-23T10:31:31.260Z,37.13
2023-02-23T10:34:19.182Z,37.83
2023-02-23T10:37:07.763Z,45.20
2023-02-23T10:39:54.844Z,48.53
2023-02-23T10:42:42.599Z,38.42
2023-02-23T10:45:30.590Z,46.22
2023-02-23T10:48:20.515Z,82.65
2023-02-23T10:51:14.344Z,38.10
2023-02-23T10:54:07.800Z,46.92
2023-02-23T10:56:54.609Z,45.55
2023-02-23T10:59:54.322Z,39.17
2023-02-23T11:02:41.688Z,41.03
2023-02-23T11:05:45.386Z,41.40
2023-02-23T11:08:34.162Z,37.10
2023-02-23T11:11:28.710Z,43.72
2023-02-23T11:14:18.194Z,46.78
2023-02-23T11:17:05.826Z,42.05
2023-02-23T11:19:54.476Z,44.88
2023-02-23T11:22:43.131Z,54.33
2023-02-23T11:25:31.434Z,50.60
2023-02-23T11:28:21.000Z,57.65
2023-02-23T11:31:15.142Z,45.45
2023-02-23T11:34:05.482Z,58.78
2023-02-23T11:37:01.962Z,48.72
2023-02-23T11:39:53.845Z,47.60
2023-02-23T11:42:53.389Z,47.97
2023-02-23T11:45:46.702Z,52.33
2023-02-23T11:48:35.616Z,53.92
2023-02-23T11:51:32.078Z,47.75
2023-02-23T11:54:24.163Z,52.80
2023-02-23T11:57:10.712Z,56.85
2023-02-23T11:59:58.641Z,54.30
2023-02-23T12:02:51.881Z,52.33
2023-02-23T12:05:38.879Z,46.90
2023-02-23T12:08:36.930Z,52.03
2023-02-23T12:11:28.321Z,57.13
2023-02-23T12:14:25.624Z,52.95
2023-02-23T12:17:18.641Z,53.92
2023-02-23T12:20:12.216Z,45.42
2023-02-23T12:23:03.510Z,74.00
2023-02-23T12:25:56.030Z,51.92
2023-02-23T12:28:49.047Z,46.85
2023-02-23T12:31:43.584Z,92.68
2023-02-23T12:34:35.794Z,50.33
2023-02-23T12:37:36.973Z,53.70
2023-02-23T12:40:28.308Z,55.78
2023-02-23T12:43:20.661Z,51.25
2023-02-23T12:46:13.949Z,50.33
2023-02-23T12:49:07.672Z,46.60
2023-02-23T12:51:59.165Z,52.25
2023-02-23T12:54:46.845Z,96.18
2023-02-23T12:57:38.893Z,47.95
2023-02-23T13:00:43.609Z,50.92
2023-02-23T13:04:09.450Z,52.78
2023-02-23T13:07:00.531Z,50.65
2023-02-23T13:09:58.297Z,53.20
2023-02-23T13:12:56.656Z,53.22
2023-02-23T13:15:57.324Z,53.20
2023-02-23T13:18:48.352Z,52.53
2023-02-23T13:21:38.051Z,53.85
2023-02-23T13:24:27.936Z,50.72
2023-02-23T13:27:17.767Z,50.28
2023-02-23T13:30:05.306Z,57.10
2023-02-23T13:32:53.718Z,80.95
2023-02-23T13:35:40.280Z,53.67
2023-02-23T13:38:36.734Z,52.45
2023-02-23T13:41:34.841Z,49.75
2023-02-23T13:44:28.325Z,47.90
2023-02-23T13:47:22.115Z,47.22
2023-02-23T13:50:18.658Z,47.17
2023-02-23T13:53:08.507Z,52.22
2023-02-23T13:56:01.779Z,50.03
2023-02-23T13:58:57.530Z,49.85
2023-02-23T14:01:47.589Z,52.42
2023-02-23T14:04:38.024Z,48.10
2023-02-23T14:07:30.849Z,51.35
2023-02-23T14:10:21.491Z,54.92
2023-02-23T14:13:25.637Z,51.35
2023-02-23T14:16:17.757Z,48.45
2023-02-23T14:19:15.638Z,54.38
2023-02-23T14:22:05.962Z,56.67
2023-02-23T14:25:26.206Z,52.95
2023-02-23T14:28:30.606Z,61.03
2023-02-23T14:31:25.821Z,60.05
2023-02-23T14:34:14.858Z,65.25
2023-02-23T14:37:15.016Z,56.78
2023-02-23T14:40:09.574Z,50.78
2023-02-23T14:42:59.281Z,55.53
2023-02-23T14:45:47.805Z,57.45
2023-02-23T14:48:36.596Z,51.55
2023-02-23T14:51:29.516Z,50.63
2023-02-23T14:54:30.961Z,52.97
2023-02-23T14:57:23.111Z,54.07
2023-02-23T15:00:22.955Z,55.90
2023-02-23T15:03:13.737Z,60.10
2023-02-23T15:06:01.739Z,61.27
2023-02-23T15:08:49.338Z,60.10
2023-02-23T15:11:37.137Z,63.73
2023-02-23T15:14:28.130Z,61.07
2023-02-23T15:17:19.237Z,67.17
2023-02-23T15:20:16.319Z,66.80
2023-02-23T15:23:05.634Z,64.13
2023-02-23T15:25:52.853Z,64.43
2023-02-23T15:28:42.000Z,58.87
2023-02-23T15:31:31.824Z,76.77
2023-02-23T15:34:20.856Z,62.90
2023-02-23T15:37:14.205Z,63.70
2023-02-23T15:40:04.270Z,72.53
2023-02-23T15:42:53.340Z,66.77
2023-02-23T15:45:43.619Z,70.43
2023-02-23T15:48:42.686Z,74.60
2023-02-23T15:51:34.932Z,72.30
2023-02-23T15:54:25.501Z,70.93
2023-02-23T15:57:20.499Z,70.23
2023-02-23T16:00:19.587Z,69.63
2023-02-23T16:03:08.255Z,67.33
2023-02-23T16:06:02.545Z,71.30
2023-02-23T16:08:58.692Z,67.83
2023-02-23T16:11:49.087Z,72.53
2023-02-23T16:14:43.664Z,68.50
2023-02-23T16:17:35.140Z,68.57
2023-02-23T16:20:29.733Z,69.40
2023-02-23T16:23:33.390Z,65.43
2023-02-23T16:26:24.191Z,70.07
2023-02-23T16:29:18.551Z,72.90
2023-02-23T16:32:17.232Z,77.70
2023-02-23T16:35:10.990Z,68.23
2023-02-23T16:38:01.854Z,75.30
2023-02-23T16:40:48.739Z,77.37
2023-02-23T16:43:35.994Z,78.87
2023-02-23T16:46:26.716Z,78.60
2023-02-23T16:49:13.759Z,75.03
2023-02-23T16:52:01.178Z,82.83
2023-02-23T16:54:51.332Z,78.17
2023-02-23T16:57:41.298Z,83.57
2023-02-23T17:00:29.697Z,80.43
2023-02-23T17:03:21.416Z,75.93
2023-02-23T17:06:08.163Z,83.57
2023-02-23T17:08:58.062Z,73.60
2023-02-23T17:11:47.054Z,76.37
2023-02-23T17:14:33.656Z,76.33
2023-02-23T17:17:21.657Z,72.10
2023-02-23T17:20:15.578Z,71.87
2023-02-23T17:23:03.492Z,73.13
2023-02-23T17:25:50.108Z,67.17
2023-02-23T17:28:36.993Z,73.40
2023-02-23T17:31:26.661Z,77.07
2023-02-23T17:34:13.896Z,59.13
2023-02-23T17:37:01.969Z,60.47
2023-02-23T17:39:49.598Z,60.80
2023-02-23T17:42:36.441Z,57.47
2023-02-23T17:45:23.594Z,54.87
2023-02-23T17:48:10.116Z,50.17
2023-02-23T17:50:59.556Z,53.83
2023-02-23T17:53:48.019Z,56.93
2023-02-23T17:56:34.593Z,50.80
2023-02-23T17:59:20.954Z,49.53
2023-02-23T18:02:08.328Z,49.53
2023-02-23T18:04:54.862Z,51.70
2023-02-23T18:07:41.190Z,54.60
2023-02-23T18:10:28.923Z,52.17
2023-02-23T18:13:16.202Z,56.17
2023-02-23T18:16:05.861Z,53.67
2023-02-23T18:18:53.637Z,53.60
2023-02-23T18:21:43.746Z,60.90
2023-02-23T18:24:32.295Z,58.83
2023-02-23T18:27:20.330Z,56.27
2023-02-23T18:30:07.880Z,55.70
2023-02-23T18:33:00.228Z,52.50
2023-02-23T18:35:46.732Z,50.93
2023-02-23T18:38:33.188Z,52.47
2023-02-23T18:41:20.106Z,55.97
2023-02-23T18:44:09.742Z,56.03
2023-02-23T18:46:56.710Z,55.37
2023-02-23T18:49:43.279Z,55.80
2023-02-23T18:52:29.894Z,51.33
2023-02-23T18:55:16.544Z,57.23
2023-02-23T18:58:04.958Z,52.57
2023-02-23T19:00:54.972Z,49.00
2023-02-23T19:03:41.574Z,53.00
2023-02-23T19:06:29.236Z,53.23
2023-02-23T19:09:19.502Z,49.63
2023-02-23T19:12:06.753Z,49.00
2023-02-23T19:14:53.245Z,50.20
2023-02-23T19:17:41.186Z,45.80
2023-02-23T19:20:32.825Z,51.77
2023-02-23T19:23:19.648Z,50.90
2023-02-23T19:26:06.451Z,55.20
2023-02-23T19:28:53.689Z,51.83
2023-02-23T19:31:40.433Z,53.43
2023-02-23T19:34:28.605Z,52.70
2023-02-23T19:37:15.220Z,50.70
2023-02-23T19:40:03.519Z,48.53
2023-02-23T19:42:52.785Z,51.17
2023-02-23T19:45:40.904Z,47.40
2023-02-23T19:48:28.968Z,44.27
2023-02-23T19:51:16.895Z,38.63
2023-02-23T19:54:03.827Z,36.40
2023-02-23T19:56:50.587Z,35.30
2023-02-23T19:59:37.838Z,38.30
2023-02-23T20:02:24.798Z,35.97
2023-02-23T20:05:11.667Z,37.73
2023-02-23T20:07:59.363Z,36.07
2023-02-23T20:10:45.815Z,37.33
2023-02-23T20:13:32.193Z,36.17
2023-02-23T20:16:18.744Z,36.73
2023-02-23T20:19:07.510Z,34.67
2023-02-23T20:21:54.382Z,38.67
2023-02-23T20:24:42.224Z,35.97
2023-02-23T20:27:30.310Z,39.10
2023-02-23T20:30:17.804Z,32.50
2023-02-23T20:33:10.662Z,32.17
2023-02-23T20:35:58.088Z,30.57
2023-02-23T20:38:44.852Z,32.13
2023-02-23T20:41:32.876Z,29.87
2023-02-23T20:44:19.337Z,30.40
2023-02-23T20:47:08.912Z,31.37
2023-02-23T20:49:57.023Z,32.73
2023-02-23T20:52:45.852Z,31.00
2023-02-23T20:55:33.245Z,31.10
2023-02-23T20:58:25.542Z,32.50
2023-02-23T21:01:16.484Z,30.23
2023-02-23T21:04:03.250Z,29.60
2023-02-23T21:06:49.941Z,35.80
2023-02-23T21:09:36.528Z,32.60
2023-02-23T21:12:23.342Z,33.90
2023-02-23T21:15:14.470Z,33.80
2023-02-23T21:18:00.892Z,31.20
2023-02-23T21:20:47.759Z,31.00
2023-02-23T21:23:34.469Z,35.10
2023-02-23T21:26:22.131Z,33.00
2023-02-23T21:29:14.813Z,32.03
2023-02-23T21:32:02.693Z,28.70
2023-02-23T21:34:49.487Z,30.33
2023-02-23T21:37:36.106Z,30.60
2023-02-23T21:40:23.429Z,31.50
2023-02-23T21:43:12.839Z,33.58
2023-02-23T21:45:59.472Z,32.50
2023-02-23T21:48:47.118Z,34.90
2023-02-23T21:51:34.605Z,33.20
2023-02-23T21:54:21.433Z,34.60
2023-02-23T21:57:07.964Z,32.10
2023-02-23T21:59:54.687Z,29.20
2023-02-23T22:02:41.718Z,34.57
2023-02-23T22:05:29.569Z,30.47
2023-02-23T22:08:15.857Z,31.37
2023-02-23T22:11:07.789Z,30.20
2023-02-23T22:13:58.728Z,32.90
2023-02-23T22:16:46.023Z,32.27
2023-02-23T22:19:32.228Z,31.90
2023-02-23T22:22:20.617Z,30.63
2023-02-23T22:25:09.171Z,28.70
2023-02-23T22:27:55.591Z,42.43
2023-02-23T22:30:44.440Z,37.67
2023-02-23T22:33:31.472Z,34.87
2023-02-23T22:36:18.770Z,39.37
2023-02-23T22:39:09.521Z,32.10
2023-02-23T22:41:56.621Z,31.47
2023-02-23T22:44:43.714Z,31.03
2023-02-23T22:47:30.576Z,31.50
2023-02-23T22:50:18.930Z,28.10
2023-02-23T22:53:06.013Z,40.23
2023-02-23T22:55:55.979Z,34.93
2023-02-23T22:58:43.014Z,24.60
2023-02-23T23:01:29.351Z,22.03
2023-02-23T23:04:16.042Z,21.50
2023-02-23T23:07:02.817Z,21.03
2023-02-23T23:09:49.431Z,20.30
2023-02-23T23:12:40.140Z,23.60
2023-02-23T23:15:26.587Z,21.67
2023-02-23T23:18:14.407Z,43.50
2023-02-23T23:21:03.421Z,31.07
2023-02-23T23:23:52.209Z,21.63
2023-02-23T23:26:40.066Z,23.33
2023-02-23T23:29:29.570Z,25.13
2023-02-23T23:32:17.740Z,29.20
2023-02-23T23:35:10.911Z,23.40
2023-02-23T23:37:57.516Z,22.07
2023-02-23T23:40:46.786Z,26.40
2023-02-23T23:43:36.935Z,26.17
2023-02-23T23:46:26.974Z,30.57
2023-02-23T23:49:15.890Z,29.37
2023-02-23T23:52:02.847Z,30.23
2023-02-23T23:54:49.460Z,34.50
2023-02-23T23:57:35.892Z,36.33
